sensor_id;sensor_type;location;lat;lon;timestamp;pressure;altitude;pressure_sealevel;temperature
82411;BMP180;76378;60.040;30.218;2024-03-02T00:00:08;101644.00;;;9.40
82411;BMP180;76378;60.040;30.218;2024-03-02T00:01:11;101640.00;;;9.40
82411;BMP180;76378;60.040;30.218;2024-03-02T00:02:13;101647.00;;;9.40
82411;BMP180;76378;60.040;30.218;2024-03-02T00:03:14;101642.00;;;9.50
82411;BMP180;76378;60.040;30.218;2024-03-02T00:04:15;101639.00;;;9.40
82411;BMP180;76378;60.040;30.218;2024-03-02T00:05:20;101635.00;;;9.40
82411;BMP180;76378;60.040;30.218;2024-03-02T00:06:21;101585.00;;;9.50
82411;BMP180;76378;60.040;30.218;2024-03-02T00:07:22;101629.00;;;9.50
82411;BMP180;76378;60.040;30.218;2024-03-02T00:08:24;101639.00;;;9.40
82411;BMP180;76378;60.040;30.218;2024-03-02T00:09:26;101643.00;;;9.50
82411;BMP180;76378;60.040;30.218;2024-03-02T00:10:48;101620.00;;;9.50
82411;BMP180;76378;60.040;30.218;2024-03-02T00:11:48;101604.00;;;9.50
82411;BMP180;76378;60.040;30.218;2024-03-02T00:12:49;101644.00;;;9.50
82411;BMP180;76378;60.040;30.218;2024-03-02T00:13:52;101606.00;;;9.50
82411;BMP180;76378;60.040;30.218;2024-03-02T00:14:53;101634.00;;;9.50
82411;BMP180;76378;60.040;30.218;2024-03-02T00:15:55;101643.00;;;9.50
82411;BMP180;76378;60.040;30.218;2024-03-02T00:16:55;101651.00;;;9.50
82411;BMP180;76378;60.040;30.218;2024-03-02T00:17:56;101633.00;;;9.50
82411;BMP180;76378;60.040;30.218;2024-03-02T00:19:10;101630.00;;;9.50
82411;BMP180;76378;60.040;30.218;2024-03-02T00:20:22;101587.00;;;9.50
82411;BMP180;76378;60.040;30.218;2024-03-02T00:21:26;101589.00;;;9.50
82411;BMP180;76378;60.040;30.218;2024-03-02T00:22:28;101640.00;;;9.50
82411;BMP180;76378;60.040;30.218;2024-03-02T00:23:31;101637.00;;;9.50
82411;BMP180;76378;60.040;30.218;2024-03-02T00:24:34;101629.00;;;9.50
82411;BMP180;76378;60.040;30.218;2024-03-02T00:25:40;101593.00;;;9.50
82411;BMP180;76378;60.040;30.218;2024-03-02T00:26:44;101636.00;;;9.50
82411;BMP180;76378;60.040;30.218;2024-03-02T00:27:48;101584.00;;;9.50
82411;BMP180;76378;60.040;30.218;2024-03-02T00:28:54;101657.00;;;9.50
82411;BMP180;76378;60.040;30.218;2024-03-02T00:29:57;101633.00;;;9.50
82411;BMP180;76378;60.040;30.218;2024-03-02T00:31:05;101599.00;;;9.50
82411;BMP180;76378;60.040;30.218;2024-03-02T00:32:13;101614.00;;;9.50
82411;BMP180;76378;60.040;30.218;2024-03-02T00:33:16;101646.00;;;9.60
82411;BMP180;76378;60.040;30.218;2024-03-02T00:34:17;101605.00;;;9.60
82411;BMP180;76378;60.040;30.218;2024-03-02T00:35:23;101633.00;;;9.60
82411;BMP180;76378;60.040;30.218;2024-03-02T00:36:26;101607.00;;;9.60
82411;BMP180;76378;60.040;30.218;2024-03-02T00:37:27;101647.00;;;9.60
82411;BMP180;76378;60.040;30.218;2024-03-02T00:38:29;101651.00;;;9.50
82411;BMP180;76378;60.040;30.218;2024-03-02T00:39:29;101629.00;;;9.60
82411;BMP180;76378;60.040;30.218;2024-03-02T00:40:30;101602.00;;;9.60
82411;BMP180;76378;60.040;30.218;2024-03-02T00:41:31;101636.00;;;9.60
82411;BMP180;76378;60.040;30.218;2024-03-02T00:42:32;101619.00;;;9.60
82411;BMP180;76378;60.040;30.218;2024-03-02T00:44:48;101643.00;;;9.60
82411;BMP180;76378;60.040;30.218;2024-03-02T00:45:49;101644.00;;;9.60
82411;BMP180;76378;60.040;30.218;2024-03-02T00:46:49;101588.00;;;9.60
82411;BMP180;76378;60.040;30.218;2024-03-02T00:47:50;101648.00;;;9.60
82411;BMP180;76378;60.040;30.218;2024-03-02T00:48:58;101642.00;;;9.60
82411;BMP180;76378;60.040;30.218;2024-03-02T00:49:59;101642.00;;;9.60
82411;BMP180;76378;60.040;30.218;2024-03-02T00:51:00;101643.00;;;9.60
82411;BMP180;76378;60.040;30.218;2024-03-02T00:52:00;101627.00;;;9.60
82411;BMP180;76378;60.040;30.218;2024-03-02T00:53:02;101593.00;;;9.60
82411;BMP180;76378;60.040;30.218;2024-03-02T00:54:09;101646.00;;;9.60
82411;BMP180;76378;60.040;30.218;2024-03-02T00:55:10;101631.00;;;9.60
82411;BMP180;76378;60.040;30.218;2024-03-02T00:56:11;101636.00;;;9.60
82411;BMP180;76378;60.040;30.218;2024-03-02T00:57:12;101578.00;;;9.60
82411;BMP180;76378;60.040;30.218;2024-03-02T00:58:12;101623.00;;;9.60
82411;BMP180;76378;60.040;30.218;2024-03-02T00:59:13;101640.00;;;9.60
82411;BMP180;76378;60.040;30.218;2024-03-02T01:00:14;101583.00;;;9.70
82411;BMP180;76378;60.040;30.218;2024-03-02T01:01:16;101650.00;;;9.70
82411;BMP180;76378;60.040;30.218;2024-03-02T01:02:16;101596.00;;;9.70
82411;BMP180;76378;60.040;30.218;2024-03-02T01:03:17;101642.00;;;9.70
82411;BMP180;76378;60.040;30.218;2024-03-02T01:04:19;101628.00;;;9.70
82411;BMP180;76378;60.040;30.218;2024-03-02T01:05:20;101632.00;;;9.70
82411;BMP180;76378;60.040;30.218;2024-03-02T01:06:20;101583.00;;;9.70
82411;BMP180;76378;60.040;30.218;2024-03-02T01:07:22;101627.00;;;9.70
82411;BMP180;76378;60.040;30.218;2024-03-02T01:08:24;101627.00;;;9.70
82411;BMP180;76378;60.040;30.218;2024-03-02T01:09:24;101594.00;;;9.70
82411;BMP180;76378;60.040;30.218;2024-03-02T01:10:25;101613.00;;;9.70
82411;BMP180;76378;60.040;30.218;2024-03-02T01:11:28;101552.00;;;9.70
82411;BMP180;76378;60.040;30.218;2024-03-02T01:12:30;101591.00;;;9.70
82411;BMP180;76378;60.040;30.218;2024-03-02T01:13:31;101618.00;;;9.70
82411;BMP180;76378;60.040;30.218;2024-03-02T01:14:31;101601.00;;;9.70
82411;BMP180;76378;60.040;30.218;2024-03-02T01:15:33;101579.00;;;9.70
82411;BMP180;76378;60.040;30.218;2024-03-02T01:16:33;101637.00;;;9.70
82411;BMP180;76378;60.040;30.218;2024-03-02T01:17:34;101609.00;;;9.70
82411;BMP180;76378;60.040;30.218;2024-03-02T01:18:35;101631.00;;;9.70
82411;BMP180;76378;60.040;30.218;2024-03-02T01:19:35;101613.00;;;9.70
82411;BMP180;76378;60.040;30.218;2024-03-02T01:20:36;101633.00;;;9.70
82411;BMP180;76378;60.040;30.218;2024-03-02T01:21:36;101616.00;;;9.70
82411;BMP180;76378;60.040;30.218;2024-03-02T01:22:37;101565.00;;;9.70
82411;BMP180;76378;60.040;30.218;2024-03-02T01:23:38;101631.00;;;9.80
82411;BMP180;76378;60.040;30.218;2024-03-02T01:24:38;101630.00;;;9.80
82411;BMP180;76378;60.040;30.218;2024-03-02T01:25:39;101613.00;;;9.80
82411;BMP180;76378;60.040;30.218;2024-03-02T01:26:40;101622.00;;;9.80
82411;BMP180;76378;60.040;30.218;2024-03-02T01:27:41;101617.00;;;9.80
82411;BMP180;76378;60.040;30.218;2024-03-02T01:28:41;101642.00;;;9.80
82411;BMP180;76378;60.040;30.218;2024-03-02T01:29:42;101586.00;;;9.80
82411;BMP180;76378;60.040;30.218;2024-03-02T01:30:43;101629.00;;;9.80
82411;BMP180;76378;60.040;30.218;2024-03-02T01:31:43;101632.00;;;9.80
82411;BMP180;76378;60.040;30.218;2024-03-02T01:32:44;101621.00;;;9.80
82411;BMP180;76378;60.040;30.218;2024-03-02T01:33:44;101636.00;;;9.80
82411;BMP180;76378;60.040;30.218;2024-03-02T01:34:45;101614.00;;;9.80
82411;BMP180;76378;60.040;30.218;2024-03-02T01:35:45;101618.00;;;9.80
82411;BMP180;76378;60.040;30.218;2024-03-02T01:36:46;101617.00;;;9.80
82411;BMP180;76378;60.040;30.218;2024-03-02T01:37:47;101582.00;;;9.80
82411;BMP180;76378;60.040;30.218;2024-03-02T01:38:47;101618.00;;;9.80
82411;BMP180;76378;60.040;30.218;2024-03-02T01:39:48;101625.00;;;9.80
82411;BMP180;76378;60.040;30.218;2024-03-02T01:40:48;101569.00;;;9.80
82411;BMP180;76378;60.040;30.218;2024-03-02T01:41:49;101597.00;;;9.80
82411;BMP180;76378;60.040;30.218;2024-03-02T01:42:49;101599.00;;;9.80
82411;BMP180;76378;60.040;30.218;2024-03-02T01:43:50;101614.00;;;9.80
82411;BMP180;76378;60.040;30.218;2024-03-02T01:44:51;101631.00;;;9.80
82411;BMP180;76378;60.040;30.218;2024-03-02T01:45:51;101602.00;;;9.80
82411;BMP180;76378;60.040;30.218;2024-03-02T01:46:53;101607.00;;;9.80
82411;BMP180;76378;60.040;30.218;2024-03-02T01:47:53;101607.00;;;9.80
82411;BMP180;76378;60.040;30.218;2024-03-02T01:48:54;101613.00;;;9.80
82411;BMP180;76378;60.040;30.218;2024-03-02T01:49:54;101620.00;;;9.90
82411;BMP180;76378;60.040;30.218;2024-03-02T01:50:55;101633.00;;;9.90
82411;BMP180;76378;60.040;30.218;2024-03-02T01:51:56;101602.00;;;9.90
82411;BMP180;76378;60.040;30.218;2024-03-02T01:52:57;101606.00;;;9.90
82411;BMP180;76378;60.040;30.218;2024-03-02T01:53:57;101556.00;;;9.90
82411;BMP180;76378;60.040;30.218;2024-03-02T01:54:58;101619.00;;;9.90
82411;BMP180;76378;60.040;30.218;2024-03-02T01:55:58;101534.00;;;9.90
82411;BMP180;76378;60.040;30.218;2024-03-02T01:56:59;101609.00;;;9.90
82411;BMP180;76378;60.040;30.218;2024-03-02T01:58:00;101614.00;;;9.90
82411;BMP180;76378;60.040;30.218;2024-03-02T01:59:01;101600.00;;;9.90
82411;BMP180;76378;60.040;30.218;2024-03-02T02:00:01;101598.00;;;9.90
82411;BMP180;76378;60.040;30.218;2024-03-02T02:01:03;101613.00;;;9.90
82411;BMP180;76378;60.040;30.218;2024-03-02T02:02:04;101609.00;;;9.90
82411;BMP180;76378;60.040;30.218;2024-03-02T02:03:04;101609.00;;;9.90
82411;BMP180;76378;60.040;30.218;2024-03-02T02:04:05;101575.00;;;9.90
82411;BMP180;76378;60.040;30.218;2024-03-02T02:05:07;101606.00;;;9.90
82411;BMP180;76378;60.040;30.218;2024-03-02T02:06:08;101615.00;;;9.90
82411;BMP180;76378;60.040;30.218;2024-03-02T02:07:09;101566.00;;;9.90
82411;BMP180;76378;60.040;30.218;2024-03-02T02:08:10;101613.00;;;9.90
82411;BMP180;76378;60.040;30.218;2024-03-02T02:09:10;101595.00;;;9.90
82411;BMP180;76378;60.040;30.218;2024-03-02T02:10:12;101618.00;;;9.70
82411;BMP180;76378;60.040;30.218;2024-03-02T02:11:16;101591.00;;;9.90
82411;BMP180;76378;60.040;30.218;2024-03-02T02:12:17;101570.00;;;9.90
82411;BMP180;76378;60.040;30.218;2024-03-02T02:13:17;101599.00;;;9.90
82411;BMP180;76378;60.040;30.218;2024-03-02T02:14:18;101624.00;;;9.90
82411;BMP180;76378;60.040;30.218;2024-03-02T02:15:29;101599.00;;;9.90
82411;BMP180;76378;60.040;30.218;2024-03-02T02:16:30;101553.00;;;9.90
82411;BMP180;76378;60.040;30.218;2024-03-02T02:17:31;101630.00;;;10.00
82411;BMP180;76378;60.040;30.218;2024-03-02T02:18:31;101601.00;;;9.90
82411;BMP180;76378;60.040;30.218;2024-03-02T02:19:32;101569.00;;;9.90
82411;BMP180;76378;60.040;30.218;2024-03-02T02:20:33;101571.00;;;9.90
82411;BMP180;76378;60.040;30.218;2024-03-02T02:21:33;101586.00;;;10.00
82411;BMP180;76378;60.040;30.218;2024-03-02T02:22:34;101627.00;;;10.00
82411;BMP180;76378;60.040;30.218;2024-03-02T02:23:34;101612.00;;;10.00
82411;BMP180;76378;60.040;30.218;2024-03-02T02:24:35;101585.00;;;9.90
82411;BMP180;76378;60.040;30.218;2024-03-02T02:25:35;101627.00;;;10.00
82411;BMP180;76378;60.040;30.218;2024-03-02T02:26:36;101634.00;;;10.00
82411;BMP180;76378;60.040;30.218;2024-03-02T02:27:36;101575.00;;;10.00
82411;BMP180;76378;60.040;30.218;2024-03-02T02:28:37;101622.00;;;10.00
82411;BMP180;76378;60.040;30.218;2024-03-02T02:29:38;101636.00;;;10.00
82411;BMP180;76378;60.040;30.218;2024-03-02T02:30:38;101635.00;;;10.00
82411;BMP180;76378;60.040;30.218;2024-03-02T02:31:40;101622.00;;;10.00
82411;BMP180;76378;60.040;30.218;2024-03-02T02:32:41;101629.00;;;10.00
82411;BMP180;76378;60.040;30.218;2024-03-02T02:33:42;101569.00;;;10.00
82411;BMP180;76378;60.040;30.218;2024-03-02T02:34:43;101644.00;;;9.90
82411;BMP180;76378;60.040;30.218;2024-03-02T02:35:43;101629.00;;;10.00
82411;BMP180;76378;60.040;30.218;2024-03-02T02:36:44;101617.00;;;10.00
82411;BMP180;76378;60.040;30.218;2024-03-02T02:37:46;101639.00;;;10.00
82411;BMP180;76378;60.040;30.218;2024-03-02T02:38:48;101558.00;;;10.00
82411;BMP180;76378;60.040;30.218;2024-03-02T02:39:49;101631.00;;;10.00
82411;BMP180;76378;60.040;30.218;2024-03-02T02:40:49;101579.00;;;10.00
82411;BMP180;76378;60.040;30.218;2024-03-02T02:41:50;101627.00;;;10.00
82411;BMP180;76378;60.040;30.218;2024-03-02T02:42:51;101656.00;;;10.00
82411;BMP180;76378;60.040;30.218;2024-03-02T02:43:54;101595.00;;;10.00
82411;BMP180;76378;60.040;30.218;2024-03-02T02:44:54;101653.00;;;10.00
82411;BMP180;76378;60.040;30.218;2024-03-02T02:45:55;101620.00;;;10.00
82411;BMP180;76378;60.040;30.218;2024-03-02T02:46:55;101563.00;;;10.00
82411;BMP180;76378;60.040;30.218;2024-03-02T02:47:56;101648.00;;;10.00
82411;BMP180;76378;60.040;30.218;2024-03-02T02:48:57;101647.00;;;10.00
82411;BMP180;76378;60.040;30.218;2024-03-02T02:49:57;101629.00;;;10.00
82411;BMP180;76378;60.040;30.218;2024-03-02T02:50:58;101641.00;;;10.00
82411;BMP180;76378;60.040;30.218;2024-03-02T02:51:58;101657.00;;;10.00
82411;BMP180;76378;60.040;30.218;2024-03-02T02:52:59;101659.00;;;10.00
82411;BMP180;76378;60.040;30.218;2024-03-02T02:53:59;101599.00;;;10.00
82411;BMP180;76378;60.040;30.218;2024-03-02T02:55:00;101648.00;;;10.00
82411;BMP180;76378;60.040;30.218;2024-03-02T02:56:00;101658.00;;;10.00
82411;BMP180;76378;60.040;30.218;2024-03-02T02:57:01;101653.00;;;10.00
82411;BMP180;76378;60.040;30.218;2024-03-02T02:58:01;101643.00;;;10.00
82411;BMP180;76378;60.040;30.218;2024-03-02T02:59:02;101613.00;;;10.00
82411;BMP180;76378;60.040;30.218;2024-03-02T03:00:05;101626.00;;;10.00
82411;BMP180;76378;60.040;30.218;2024-03-02T03:01:10;101657.00;;;10.00
82411;BMP180;76378;60.040;30.218;2024-03-02T03:02:11;101636.00;;;10.00
82411;BMP180;76378;60.040;30.218;2024-03-02T03:03:11;101654.00;;;10.10
82411;BMP180;76378;60.040;30.218;2024-03-02T03:04:12;101656.00;;;10.10
82411;BMP180;76378;60.040;30.218;2024-03-02T03:05:13;101633.00;;;10.00
82411;BMP180;76378;60.040;30.218;2024-03-02T03:06:14;101634.00;;;10.00
82411;BMP180;76378;60.040;30.218;2024-03-02T03:07:14;101630.00;;;10.00
82411;BMP180;76378;60.040;30.218;2024-03-02T03:08:15;101614.00;;;10.00
82411;BMP180;76378;60.040;30.218;2024-03-02T03:09:18;101629.00;;;10.10
82411;BMP180;76378;60.040;30.218;2024-03-02T03:10:19;101637.00;;;10.10
82411;BMP180;76378;60.040;30.218;2024-03-02T03:11:22;101588.00;;;10.10
82411;BMP180;76378;60.040;30.218;2024-03-02T03:12:25;101613.00;;;10.00
82411;BMP180;76378;60.040;30.218;2024-03-02T03:13:25;101558.00;;;10.00
82411;BMP180;76378;60.040;30.218;2024-03-02T03:14:26;101628.00;;;10.00
82411;BMP180;76378;60.040;30.218;2024-03-02T03:15:26;101635.00;;;10.00
82411;BMP180;76378;60.040;30.218;2024-03-02T03:16:27;101606.00;;;10.00
82411;BMP180;76378;60.040;30.218;2024-03-02T03:17:27;101578.00;;;10.10
82411;BMP180;76378;60.040;30.218;2024-03-02T03:18:28;101593.00;;;10.00
82411;BMP180;76378;60.040;30.218;2024-03-02T03:19:29;101626.00;;;10.00
82411;BMP180;76378;60.040;30.218;2024-03-02T03:20:30;101622.00;;;10.10
82411;BMP180;76378;60.040;30.218;2024-03-02T03:21:31;101585.00;;;10.10
82411;BMP180;76378;60.040;30.218;2024-03-02T03:22:32;101588.00;;;10.10
82411;BMP180;76378;60.040;30.218;2024-03-02T03:23:32;101573.00;;;10.10
82411;BMP180;76378;60.040;30.218;2024-03-02T03:24:33;101629.00;;;10.10
82411;BMP180;76378;60.040;30.218;2024-03-02T03:25:33;101623.00;;;10.10
82411;BMP180;76378;60.040;30.218;2024-03-02T03:26:36;101608.00;;;10.10
82411;BMP180;76378;60.040;30.218;2024-03-02T03:27:36;101625.00;;;10.10
82411;BMP180;76378;60.040;30.218;2024-03-02T03:28:37;101626.00;;;10.10
82411;BMP180;76378;60.040;30.218;2024-03-02T03:29:38;101605.00;;;10.10
82411;BMP180;76378;60.040;30.218;2024-03-02T03:30:39;101637.00;;;10.10
82411;BMP180;76378;60.040;30.218;2024-03-02T03:31:39;101632.00;;;10.10
82411;BMP180;76378;60.040;30.218;2024-03-02T03:32:40;101635.00;;;10.10
82411;BMP180;76378;60.040;30.218;2024-03-02T03:33:41;101633.00;;;10.10
82411;BMP180;76378;60.040;30.218;2024-03-02T03:34:41;101584.00;;;10.10
82411;BMP180;76378;60.040;30.218;2024-03-02T03:35:42;101586.00;;;10.10
82411;BMP180;76378;60.040;30.218;2024-03-02T03:36:42;101595.00;;;10.10
82411;BMP180;76378;60.040;30.218;2024-03-02T03:37:43;101626.00;;;10.10
82411;BMP180;76378;60.040;30.218;2024-03-02T03:38:44;101626.00;;;10.10
82411;BMP180;76378;60.040;30.218;2024-03-02T03:39:45;101594.00;;;10.10
82411;BMP180;76378;60.040;30.218;2024-03-02T03:40:45;101623.00;;;10.10
82411;BMP180;76378;60.040;30.218;2024-03-02T03:41:46;101544.00;;;10.10
82411;BMP180;76378;60.040;30.218;2024-03-02T03:42:47;101569.00;;;10.10
82411;BMP180;76378;60.040;30.218;2024-03-02T03:43:49;101564.00;;;10.10
82411;BMP180;76378;60.040;30.218;2024-03-02T03:44:49;101557.00;;;10.10
82411;BMP180;76378;60.040;30.218;2024-03-02T03:45:50;101565.00;;;10.10
82411;BMP180;76378;60.040;30.218;2024-03-02T03:46:51;101609.00;;;10.10
82411;BMP180;76378;60.040;30.218;2024-03-02T03:47:53;101598.00;;;10.10
82411;BMP180;76378;60.040;30.218;2024-03-02T03:48:53;101619.00;;;10.10
82411;BMP180;76378;60.040;30.218;2024-03-02T03:49:54;101621.00;;;10.20
82411;BMP180;76378;60.040;30.218;2024-03-02T03:50:54;101615.00;;;10.10
82411;BMP180;76378;60.040;30.218;2024-03-02T03:51:55;101619.00;;;10.20
82411;BMP180;76378;60.040;30.218;2024-03-02T03:52:55;101607.00;;;10.20
82411;BMP180;76378;60.040;30.218;2024-03-02T03:53:56;101605.00;;;10.10
82411;BMP180;76378;60.040;30.218;2024-03-02T03:54:56;101626.00;;;10.20
82411;BMP180;76378;60.040;30.218;2024-03-02T03:55:57;101630.00;;;10.10
82411;BMP180;76378;60.040;30.218;2024-03-02T03:56:57;101589.00;;;10.20
82411;BMP180;76378;60.040;30.218;2024-03-02T03:57:58;101628.00;;;10.20
82411;BMP180;76378;60.040;30.218;2024-03-02T03:58:59;101615.00;;;10.20
82411;BMP180;76378;60.040;30.218;2024-03-02T04:00:00;101589.00;;;10.10
82411;BMP180;76378;60.040;30.218;2024-03-02T04:01:00;101626.00;;;10.20
82411;BMP180;76378;60.040;30.218;2024-03-02T04:02:01;101633.00;;;10.20
82411;BMP180;76378;60.040;30.218;2024-03-02T04:03:03;101632.00;;;10.20
82411;BMP180;76378;60.040;30.218;2024-03-02T04:04:03;101607.00;;;10.20
82411;BMP180;76378;60.040;30.218;2024-03-02T04:05:04;101626.00;;;10.20
82411;BMP180;76378;60.040;30.218;2024-03-02T04:06:08;101628.00;;;10.20
82411;BMP180;76378;60.040;30.218;2024-03-02T04:07:09;101628.00;;;10.20
82411;BMP180;76378;60.040;30.218;2024-03-02T04:08:10;101626.00;;;10.20
82411;BMP180;76378;60.040;30.218;2024-03-02T04:09:11;101607.00;;;10.20
82411;BMP180;76378;60.040;30.218;2024-03-02T04:10:12;101617.00;;;10.20
82411;BMP180;76378;60.040;30.218;2024-03-02T04:11:12;101570.00;;;10.20
82411;BMP180;76378;60.040;30.218;2024-03-02T04:12:13;101592.00;;;10.20
82411;BMP180;76378;60.040;30.218;2024-03-02T04:13:14;101615.00;;;10.20
82411;BMP180;76378;60.040;30.218;2024-03-02T04:14:14;101625.00;;;10.20
82411;BMP180;76378;60.040;30.218;2024-03-02T04:15:15;101609.00;;;10.20
82411;BMP180;76378;60.040;30.218;2024-03-02T04:16:15;101626.00;;;10.20
82411;BMP180;76378;60.040;30.218;2024-03-02T04:17:16;101620.00;;;10.20
82411;BMP180;76378;60.040;30.218;2024-03-02T04:18:16;101616.00;;;10.20
82411;BMP180;76378;60.040;30.218;2024-03-02T04:19:16;101631.00;;;10.20
82411;BMP180;76378;60.040;30.218;2024-03-02T04:20:17;101620.00;;;10.20
82411;BMP180;76378;60.040;30.218;2024-03-02T04:21:18;101617.00;;;10.20
82411;BMP180;76378;60.040;30.218;2024-03-02T04:22:18;101579.00;;;10.20
82411;BMP180;76378;60.040;30.218;2024-03-02T04:23:19;101524.00;;;10.20
82411;BMP180;76378;60.040;30.218;2024-03-02T04:24:19;101612.00;;;10.20
82411;BMP180;76378;60.040;30.218;2024-03-02T04:25:20;101523.00;;;10.20
82411;BMP180;76378;60.040;30.218;2024-03-02T04:26:20;101616.00;;;10.20
82411;BMP180;76378;60.040;30.218;2024-03-02T04:27:22;101551.00;;;10.20
82411;BMP180;76378;60.040;30.218;2024-03-02T04:28:23;101562.00;;;10.20
82411;BMP180;76378;60.040;30.218;2024-03-02T04:29:23;101549.00;;;10.20
82411;BMP180;76378;60.040;30.218;2024-03-02T04:30:24;101535.00;;;10.20
82411;BMP180;76378;60.040;30.218;2024-03-02T04:31:25;101597.00;;;10.20
82411;BMP180;76378;60.040;30.218;2024-03-02T04:32:28;101608.00;;;10.20
82411;BMP180;76378;60.040;30.218;2024-03-02T04:33:29;101602.00;;;10.20
82411;BMP180;76378;60.040;30.218;2024-03-02T04:34:30;101592.00;;;10.20
82411;BMP180;76378;60.040;30.218;2024-03-02T04:35:30;101625.00;;;10.20
82411;BMP180;76378;60.040;30.218;2024-03-02T04:36:31;101552.00;;;10.20
82411;BMP180;76378;60.040;30.218;2024-03-02T04:37:34;101632.00;;;10.30
82411;BMP180;76378;60.040;30.218;2024-03-02T04:38:35;101606.00;;;10.30
82411;BMP180;76378;60.040;30.218;2024-03-02T04:39:35;101627.00;;;10.30
82411;BMP180;76378;60.040;30.218;2024-03-02T04:40:36;101613.00;;;10.30
82411;BMP180;76378;60.040;30.218;2024-03-02T04:41:37;101613.00;;;10.30
82411;BMP180;76378;60.040;30.218;2024-03-02T04:42:37;101618.00;;;10.30
82411;BMP180;76378;60.040;30.218;2024-03-02T04:43:38;101637.00;;;10.30
82411;BMP180;76378;60.040;30.218;2024-03-02T04:44:39;101621.00;;;10.30
82411;BMP180;76378;60.040;30.218;2024-03-02T04:45:40;101574.00;;;10.30
82411;BMP180;76378;60.040;30.218;2024-03-02T04:46:40;101620.00;;;10.30
82411;BMP180;76378;60.040;30.218;2024-03-02T04:47:41;101572.00;;;10.30
82411;BMP180;76378;60.040;30.218;2024-03-02T04:48:41;101583.00;;;10.30
82411;BMP180;76378;60.040;30.218;2024-03-02T04:49:42;101625.00;;;10.30
82411;BMP180;76378;60.040;30.218;2024-03-02T04:50:42;101618.00;;;10.30
82411;BMP180;76378;60.040;30.218;2024-03-02T04:51:43;101607.00;;;10.30
82411;BMP180;76378;60.040;30.218;2024-03-02T04:52:43;101607.00;;;10.30
82411;BMP180;76378;60.040;30.218;2024-03-02T04:53:44;101625.00;;;10.30
82411;BMP180;76378;60.040;30.218;2024-03-02T04:54:44;101614.00;;;10.30
82411;BMP180;76378;60.040;30.218;2024-03-02T04:56:03;101627.00;;;10.20
82411;BMP180;76378;60.040;30.218;2024-03-02T04:57:24;101583.00;;;10.30
82411;BMP180;76378;60.040;30.218;2024-03-02T04:58:24;101572.00;;;10.30
82411;BMP180;76378;60.040;30.218;2024-03-02T04:59:25;101538.00;;;10.30
82411;BMP180;76378;60.040;30.218;2024-03-02T05:00:25;101609.00;;;10.20
82411;BMP180;76378;60.040;30.218;2024-03-02T05:01:26;101620.00;;;10.30
82411;BMP180;76378;60.040;30.218;2024-03-02T05:02:26;101572.00;;;10.30
82411;BMP180;76378;60.040;30.218;2024-03-02T05:03:27;101586.00;;;10.30
82411;BMP180;76378;60.040;30.218;2024-03-02T05:04:27;101624.00;;;10.30
82411;BMP180;76378;60.040;30.218;2024-03-02T05:05:28;101612.00;;;10.30
82411;BMP180;76378;60.040;30.218;2024-03-02T05:06:29;101626.00;;;10.30
82411;BMP180;76378;60.040;30.218;2024-03-02T05:07:30;101594.00;;;10.30
82411;BMP180;76378;60.040;30.218;2024-03-02T05:08:30;101634.00;;;10.30
82411;BMP180;76378;60.040;30.218;2024-03-02T05:09:31;101631.00;;;10.30
82411;BMP180;76378;60.040;30.218;2024-03-02T05:10:31;101635.00;;;10.30
82411;BMP180;76378;60.040;30.218;2024-03-02T05:11:32;101637.00;;;10.30
82411;BMP180;76378;60.040;30.218;2024-03-02T05:12:38;101626.00;;;10.30
82411;BMP180;76378;60.040;30.218;2024-03-02T05:13:42;101623.00;;;10.30
82411;BMP180;76378;60.040;30.218;2024-03-02T05:14:43;101605.00;;;10.30
82411;BMP180;76378;60.040;30.218;2024-03-02T05:15:43;101629.00;;;10.30
82411;BMP180;76378;60.040;30.218;2024-03-02T05:16:44;101602.00;;;10.30
82411;BMP180;76378;60.040;30.218;2024-03-02T05:17:44;101580.00;;;10.30
82411;BMP180;76378;60.040;30.218;2024-03-02T05:18:45;101625.00;;;10.30
82411;BMP180;76378;60.040;30.218;2024-03-02T05:19:45;101569.00;;;10.30
82411;BMP180;76378;60.040;30.218;2024-03-02T05:20:46;101619.00;;;10.30
82411;BMP180;76378;60.040;30.218;2024-03-02T05:21:46;101617.00;;;10.30
82411;BMP180;76378;60.040;30.218;2024-03-02T05:22:47;101592.00;;;10.30
82411;BMP180;76378;60.040;30.218;2024-03-02T05:23:48;101628.00;;;10.30
82411;BMP180;76378;60.040;30.218;2024-03-02T05:24:49;101634.00;;;10.30
82411;BMP180;76378;60.040;30.218;2024-03-02T05:25:49;101623.00;;;10.40
82411;BMP180;76378;60.040;30.218;2024-03-02T05:26:50;101542.00;;;10.30
82411;BMP180;76378;60.040;30.218;2024-03-02T05:27:50;101545.00;;;10.40
82411;BMP180;76378;60.040;30.218;2024-03-02T05:28:51;101632.00;;;10.40
82411;BMP180;76378;60.040;30.218;2024-03-02T05:29:51;101624.00;;;10.40
82411;BMP180;76378;60.040;30.218;2024-03-02T05:30:52;101643.00;;;10.40
82411;BMP180;76378;60.040;30.218;2024-03-02T05:31:53;101631.00;;;10.40
82411;BMP180;76378;60.040;30.218;2024-03-02T05:32:53;101621.00;;;10.40
82411;BMP180;76378;60.040;30.218;2024-03-02T05:33:54;101629.00;;;10.40
82411;BMP180;76378;60.040;30.218;2024-03-02T05:34:54;101628.00;;;10.40
82411;BMP180;76378;60.040;30.218;2024-03-02T05:35:55;101587.00;;;10.40
82411;BMP180;76378;60.040;30.218;2024-03-02T05:36:56;101548.00;;;10.40
82411;BMP180;76378;60.040;30.218;2024-03-02T05:37:58;101573.00;;;10.40
82411;BMP180;76378;60.040;30.218;2024-03-02T05:38:59;101623.00;;;10.40
82411;BMP180;76378;60.040;30.218;2024-03-02T05:39:59;101622.00;;;10.40
82411;BMP180;76378;60.040;30.218;2024-03-02T05:41:00;101627.00;;;10.40
82411;BMP180;76378;60.040;30.218;2024-03-02T05:42:01;101496.00;;;10.40
82411;BMP180;76378;60.040;30.218;2024-03-02T05:43:01;101592.00;;;10.40
82411;BMP180;76378;60.040;30.218;2024-03-02T05:44:02;101578.00;;;10.30
82411;BMP180;76378;60.040;30.218;2024-03-02T05:45:03;101637.00;;;10.40
82411;BMP180;76378;60.040;30.218;2024-03-02T05:46:03;101621.00;;;10.40